PWSweather.com
Personal Weather Stations
Station Observations
CANDIOTINO
Barrio Candioti Norte, Santa FeAR 3000

Barrio Candioti NorteSanta FeAR 3000

Lat: -31.632778, Lon: -60.695556

Elevation: 69

Station Type: WH-1081

http://www.eltiempoensantafe.com.ar

High Low Average
Temperature 78.8°F26.0°C 50.0°F10.0°C 64.0°F17.8°C
Dew Point 48.7°F9.3°C 28.4°F-2.0°C 35.5°F1.9°C
Winds 9.8 mph 15.8 kmh Calm Calm 3.0 mph WSW4.8 kmh WSW
Wind Gusts 17.4 mph28.0 kmh -- 7.0 mph11.3 kmh
Humidity 59% 17% 38%
Pressure 30.12 in1020.0 mb 30.01 in1016.3 mb -
Precipitation 0.00 in0.0 mm - -
Hour Temp Dew Point Humidity Winds Wind Gusts Pressure Precip Precip Rate Daily Precip Total
12:00 AM 57.9°F14.4°C 33.8°F1.0°C 40% 1.6 mph NW2.6 kmh NW 3.1 mph5.0 kmh 30.07 in1018.3 mb 0.00 in0.0 mm 0.00 in0.0 mm 0.00 in0.0 mm
12:15 AM 57.6°F14.2°C 34.7°F1.5°C 42% 0.7 mph NW1.1 kmh NW 2.2 mph3.5 kmh 30.07 in1018.3 mb 0.00 in0.0 mm 0.00 in0.0 mm 0.00 in0.0 mm
12:30 AM 57.4°F14.1°C 36.2°F2.3°C 45% 1.6 mph NW2.6 kmh NW 3.8 mph6.1 kmh 30.07 in1018.3 mb 0.00 in0.0 mm 0.00 in0.0 mm 0.00 in0.0 mm
12:45 AM 57.2°F14.0°C 36.1°F2.3°C 45% 1.6 mph NW2.6 kmh NW 3.8 mph6.1 kmh 30.07 in1018.3 mb 0.00 in0.0 mm 0.00 in0.0 mm 0.00 in0.0 mm
01:00 AM 57.0°F13.9°C 37.0°F2.8°C 47% 1.6 mph NW2.6 kmh NW 3.8 mph6.1 kmh 30.07 in1018.3 mb 0.00 in0.0 mm 0.00 in0.0 mm 0.00 in0.0 mm
01:15 AM 56.7°F13.7°C 36.1°F2.3°C 46% 1.6 mph NW2.6 kmh NW 3.8 mph6.1 kmh 30.07 in1018.3 mb 0.00 in0.0 mm 0.00 in0.0 mm 0.00 in0.0 mm
01:30 AM 56.5°F13.6°C 36.0°F2.2°C 46% 0.7 mph NNW1.1 kmh NNW 3.8 mph6.1 kmh 30.07 in1018.3 mb 0.00 in0.0 mm 0.00 in0.0 mm 0.00 in0.0 mm
01:45 AM 55.8°F13.2°C 35.8°F2.1°C 47% 1.6 mph NW2.6 kmh NW 2.2 mph3.5 kmh 30.07 in1018.3 mb 0.00 in0.0 mm 0.00 in0.0 mm 0.00 in0.0 mm
02:00 AM 55.8°F13.2°C 35.8°F2.1°C 47% Calm Calm 3.8 mph6.1 kmh 30.07 in1018.3 mb 0.00 in0.0 mm 0.00 in0.0 mm 0.00 in0.0 mm
02:15 AM 55.2°F12.9°C 35.9°F2.2°C 48% 0.7 mph NE1.1 kmh NE 2.2 mph3.5 kmh 30.07 in1018.3 mb 0.00 in0.0 mm 0.00 in0.0 mm 0.00 in0.0 mm
02:30 AM 55.0°F12.8°C 35.7°F2.1°C 48% 1.6 mph NW2.6 kmh NW 3.1 mph5.0 kmh 30.07 in1018.3 mb 0.00 in0.0 mm 0.00 in0.0 mm 0.00 in0.0 mm
02:45 AM 54.3°F12.4°C 36.1°F2.3°C 50% 0.7 mph NNE1.1 kmh NNE 3.1 mph5.0 kmh 30.07 in1018.3 mb 0.00 in0.0 mm 0.00 in0.0 mm 0.00 in0.0 mm
03:00 AM 53.6°F12.0°C 36.4°F2.4°C 52% 0.7 mph N1.1 kmh N 2.2 mph3.5 kmh 30.07 in1018.3 mb 0.00 in0.0 mm 0.00 in0.0 mm 0.00 in0.0 mm
03:15 AM 53.2°F11.8°C 36.1°F2.3°C 52% Calm Calm 3.1 mph5.0 kmh 30.06 in1017.9 mb 0.00 in0.0 mm 0.00 in0.0 mm 0.00 in0.0 mm
03:30 AM 52.9°F11.6°C 35.7°F2.1°C 52% Calm Calm 3.1 mph5.0 kmh 30.06 in1017.9 mb 0.00 in0.0 mm 0.00 in0.0 mm 0.00 in0.0 mm
03:45 AM 52.7°F11.5°C 35.6°F2.0°C 52% 0.7 mph NW1.1 kmh NW 3.8 mph6.1 kmh 30.05 in1017.6 mb 0.00 in0.0 mm 0.00 in0.0 mm 0.00 in0.0 mm
04:00 AM 52.7°F11.5°C 36.1°F2.3°C 53% 0.7 mph NW1.1 kmh NW 5.4 mph8.7 kmh 30.05 in1017.6 mb 0.00 in0.0 mm 0.00 in0.0 mm 0.00 in0.0 mm
04:15 AM 52.5°F11.4°C 36.4°F2.4°C 54% 1.6 mph NW2.6 kmh NW 3.8 mph6.1 kmh 30.04 in1017.3 mb 0.00 in0.0 mm 0.00 in0.0 mm 0.00 in0.0 mm
04:30 AM 52.3°F11.3°C 36.2°F2.3°C 54% 0.7 mph NNW1.1 kmh NNW 3.1 mph5.0 kmh 30.05 in1017.6 mb 0.00 in0.0 mm 0.00 in0.0 mm 0.00 in0.0 mm
04:45 AM 51.8°F11.0°C 36.6°F2.6°C 56% 0.7 mph NW1.1 kmh NW 2.2 mph3.5 kmh 30.05 in1017.6 mb 0.00 in0.0 mm 0.00 in0.0 mm 0.00 in0.0 mm
05:00 AM 51.4°F10.8°C 37.2°F2.9°C 58% Calm Calm 1.6 mph2.6 kmh 30.05 in1017.6 mb 0.00 in0.0 mm 0.00 in0.0 mm 0.00 in0.0 mm
05:15 AM 51.6°F10.9°C 37.3°F2.9°C 58% 1.6 mph NW2.6 kmh NW 3.1 mph5.0 kmh 30.06 in1017.9 mb 0.00 in0.0 mm 0.00 in0.0 mm 0.00 in0.0 mm
05:30 AM 51.4°F10.8°C 36.7°F2.6°C 57% 2.2 mph NW3.5 kmh NW 4.5 mph7.2 kmh 30.06 in1017.9 mb 0.00 in0.0 mm 0.00 in0.0 mm 0.00 in0.0 mm
05:45 AM 51.1°F10.6°C 36.8°F2.7°C 58% Calm Calm 3.8 mph6.1 kmh 30.06 in1017.9 mb 0.00 in0.0 mm 0.00 in0.0 mm 0.00 in0.0 mm
06:00 AM 51.1°F10.6°C 37.3°F2.9°C 59% 1.6 mph NW2.6 kmh NW 3.8 mph6.1 kmh 30.06 in1017.9 mb 0.00 in0.0 mm 0.00 in0.0 mm 0.00 in0.0 mm
06:15 AM 50.9°F10.5°C 36.2°F2.3°C 57% Calm Calm 1.6 mph2.6 kmh 30.07 in1018.3 mb 0.00 in0.0 mm 0.00 in0.0 mm 0.00 in0.0 mm
06:30 AM 50.4°F10.2°C 35.7°F2.1°C 57% Calm Calm 2.2 mph3.5 kmh 30.07 in1018.3 mb 0.00 in0.0 mm 0.00 in0.0 mm 0.00 in0.0 mm
06:45 AM 50.5°F10.3°C 35.4°F1.9°C 56% 0.7 mph N1.1 kmh N 4.5 mph7.2 kmh 30.07 in1018.3 mb 0.00 in0.0 mm 0.00 in0.0 mm 0.00 in0.0 mm
07:00 AM 50.0°F10.0°C 34.9°F1.6°C 56% Calm Calm 2.2 mph3.5 kmh 30.07 in1018.3 mb 0.00 in0.0 mm 0.00 in0.0 mm 0.00 in0.0 mm
07:15 AM 50.0°F10.0°C 35.4°F1.9°C 57% Calm Calm 3.1 mph5.0 kmh 30.08 in1018.6 mb 0.00 in0.0 mm 0.00 in0.0 mm 0.00 in0.0 mm
07:30 AM 50.4°F10.2°C 36.2°F2.3°C 58% 0.7 mph N1.1 kmh N 2.2 mph3.5 kmh 30.09 in1019.0 mb 0.00 in0.0 mm 0.00 in0.0 mm 0.00 in0.0 mm
07:45 AM 52.0°F11.1°C 35.4°F1.9°C 53% 2.2 mph N3.5 kmh N 5.4 mph8.7 kmh 30.09 in1019.0 mb 0.00 in0.0 mm 0.00 in0.0 mm 0.00 in0.0 mm
08:00 AM 54.1°F12.3°C 34.4°F1.3°C 47% 1.6 mph N2.6 kmh N 6.0 mph9.7 kmh 30.10 in1019.3 mb 0.00 in0.0 mm 0.00 in0.0 mm 0.00 in0.0 mm
08:15 AM 55.9°F13.3°C 34.9°F1.6°C 45% 2.2 mph NNW3.5 kmh NNW 6.9 mph11.1 kmh 30.10 in1019.3 mb 0.00 in0.0 mm 0.00 in0.0 mm 0.00 in0.0 mm
08:30 AM 56.7°F13.7°C 34.4°F1.3°C 43% 3.8 mph N6.1 kmh N 6.9 mph11.1 kmh 30.10 in1019.3 mb 0.00 in0.0 mm 0.00 in0.0 mm 0.00 in0.0 mm
08:45 AM 58.1°F14.5°C 34.5°F1.4°C 41% 3.1 mph N5.0 kmh N 6.9 mph11.1 kmh 30.11 in1019.6 mb 0.00 in0.0 mm 0.00 in0.0 mm 0.00 in0.0 mm
09:00 AM 59.9°F15.5°C 33.6°F0.9°C 37% 5.4 mph N8.7 kmh N 8.3 mph13.4 kmh 30.11 in1019.6 mb 0.00 in0.0 mm 0.00 in0.0 mm 0.00 in0.0 mm
09:15 AM 61.0°F16.1°C 33.2°F0.7°C 35% 3.8 mph NNW6.1 kmh NNW 9.2 mph14.8 kmh 30.11 in1019.6 mb 0.00 in0.0 mm 0.00 in0.0 mm 0.00 in0.0 mm
09:30 AM 62.4°F16.9°C 33.0°F0.6°C 33% 6.9 mph N11.1 kmh N 13.6 mph21.9 kmh 30.12 in1020.0 mb 0.00 in0.0 mm 0.00 in0.0 mm 0.00 in0.0 mm
09:45 AM 63.3°F17.4°C 33.0°F0.6°C 32% 4.5 mph NNW7.2 kmh NNW 10.7 mph17.2 kmh 30.12 in1020.0 mb 0.00 in0.0 mm 0.00 in0.0 mm 0.00 in0.0 mm
10:00 AM 64.2°F17.9°C 33.8°F1.0°C 32% 7.6 mph NNW12.2 kmh NNW 11.4 mph18.3 kmh 30.12 in1020.0 mb 0.00 in0.0 mm 0.00 in0.0 mm 0.00 in0.0 mm
10:15 AM 65.7°F18.7°C 35.0°F1.7°C 32% 6.9 mph N11.1 kmh N 10.7 mph17.2 kmh 30.12 in1020.0 mb 0.00 in0.0 mm 0.00 in0.0 mm 0.00 in0.0 mm
10:30 AM 66.0°F18.9°C 35.3°F1.8°C 32% 3.8 mph NNW6.1 kmh NNW 12.1 mph19.5 kmh 30.12 in1020.0 mb 0.00 in0.0 mm 0.00 in0.0 mm 0.00 in0.0 mm
10:45 AM 66.9°F19.4°C 32.8°F0.4°C 28% 8.3 mph NW13.4 kmh NW 14.5 mph23.3 kmh 30.12 in1020.0 mb 0.00 in0.0 mm 0.00 in0.0 mm 0.00 in0.0 mm
11:00 AM 68.0°F20.0°C 32.8°F0.4°C 27% 8.3 mph N13.4 kmh N 14.5 mph23.3 kmh 30.11 in1019.6 mb 0.00 in0.0 mm 0.00 in0.0 mm 0.00 in0.0 mm
11:15 AM 68.4°F20.2°C 30.2°F-1.0°C 24% 7.6 mph NW12.2 kmh NW 13.0 mph20.9 kmh 30.11 in1019.6 mb 0.00 in0.0 mm 0.00 in0.0 mm 0.00 in0.0 mm
11:30 AM 69.4°F20.8°C 33.1°F0.6°C 26% 9.2 mph N14.8 kmh N 13.0 mph20.9 kmh 30.10 in1019.3 mb 0.00 in0.0 mm 0.00 in0.0 mm 0.00 in0.0 mm
11:45 AM 68.9°F20.5°C 31.7°F-0.2°C 25% 5.4 mph NW8.7 kmh NW 15.2 mph24.5 kmh 30.10 in1019.3 mb 0.00 in0.0 mm 0.00 in0.0 mm 0.00 in0.0 mm
12:00 PM 70.2°F21.2°C 30.7°F-0.7°C 23% 8.3 mph NNW13.4 kmh NNW 12.1 mph19.5 kmh 30.10 in1019.3 mb 0.00 in0.0 mm 0.00 in0.0 mm 0.00 in0.0 mm
12:15 PM 70.9°F21.6°C 31.3°F-0.4°C 23% 3.8 mph NW6.1 kmh NW 10.7 mph17.2 kmh 30.09 in1019.0 mb 0.00 in0.0 mm 0.00 in0.0 mm 0.00 in0.0 mm
12:30 PM 70.9°F21.6°C 31.3°F-0.4°C 23% 9.2 mph NW14.8 kmh NW 13.0 mph20.9 kmh 30.09 in1019.0 mb 0.00 in0.0 mm 0.00 in0.0 mm 0.00 in0.0 mm
12:45 PM 72.1°F22.3°C 30.1°F-1.1°C 21% 6.0 mph N9.7 kmh N 13.0 mph20.9 kmh 30.09 in1019.0 mb 0.00 in0.0 mm 0.00 in0.0 mm 0.00 in0.0 mm
01:00 PM 72.3°F22.4°C 30.2°F-1.0°C 21% 4.5 mph NW7.2 kmh NW 14.5 mph23.3 kmh 30.08 in1018.6 mb 0.00 in0.0 mm 0.00 in0.0 mm 0.00 in0.0 mm
01:15 PM 73.0°F22.8°C 28.4°F-2.0°C 19% 6.0 mph NNW9.7 kmh NNW 11.4 mph18.3 kmh 30.07 in1018.3 mb 0.00 in0.0 mm 0.00 in0.0 mm 0.00 in0.0 mm
01:30 PM 74.1°F23.4°C 34.0°F1.1°C 23% 7.6 mph NNW12.2 kmh NNW 13.6 mph21.9 kmh 30.07 in1018.3 mb 0.00 in0.0 mm 0.00 in0.0 mm 0.00 in0.0 mm
01:45 PM 73.8°F23.2°C 32.6°F0.3°C 22% 3.1 mph NNW5.0 kmh NNW 14.5 mph23.3 kmh 30.05 in1017.6 mb 0.00 in0.0 mm 0.00 in0.0 mm 0.00 in0.0 mm
02:00 PM 74.8°F23.8°C 32.3°F0.2°C 21% 5.4 mph NW8.7 kmh NW 12.1 mph19.5 kmh 30.05 in1017.6 mb 0.00 in0.0 mm 0.00 in0.0 mm 0.00 in0.0 mm
02:15 PM 75.9°F24.4°C 30.7°F-0.7°C 19% 6.0 mph NNW9.7 kmh NNW 12.1 mph19.5 kmh 30.05 in1017.6 mb 0.00 in0.0 mm 0.00 in0.0 mm 0.00 in0.0 mm
02:30 PM 75.9°F24.4°C 32.0°F0.0°C 20% 6.9 mph N11.1 kmh N 10.7 mph17.2 kmh 30.05 in1017.6 mb 0.00 in0.0 mm 0.00 in0.0 mm 0.00 in0.0 mm
02:45 PM 75.0°F23.9°C 32.5°F0.3°C 21% 9.8 mph NNW15.8 kmh NNW 14.5 mph23.3 kmh 30.04 in1017.3 mb 0.00 in0.0 mm 0.00 in0.0 mm 0.00 in0.0 mm
03:00 PM 75.7°F24.3°C 31.9°F-0.1°C 20% 5.4 mph NNW8.7 kmh NNW 17.4 mph28.0 kmh 30.03 in1016.9 mb 0.00 in0.0 mm 0.00 in0.0 mm 0.00 in0.0 mm
03:15 PM 76.3°F24.6°C 33.5°F0.8°C 21% 6.9 mph NNW11.1 kmh NNW 14.5 mph23.3 kmh 30.02 in1016.6 mb 0.00 in0.0 mm 0.00 in0.0 mm 0.00 in0.0 mm
03:30 PM 77.4°F25.2°C 33.2°F0.7°C 20% 5.4 mph NNW8.7 kmh NNW 10.7 mph17.2 kmh 30.02 in1016.6 mb 0.00 in0.0 mm 0.00 in0.0 mm 0.00 in0.0 mm
03:45 PM 78.3°F25.7°C 32.7°F0.4°C 19% 3.8 mph NNW6.1 kmh NNW 9.8 mph15.8 kmh 30.02 in1016.6 mb 0.00 in0.0 mm 0.00 in0.0 mm 0.00 in0.0 mm
04:00 PM 78.6°F25.9°C 33.0°F0.6°C 19% 5.4 mph N8.7 kmh N 9.2 mph14.8 kmh 30.01 in1016.3 mb 0.00 in0.0 mm 0.00 in0.0 mm 0.00 in0.0 mm
04:15 PM 77.7°F25.4°C 32.2°F0.1°C 19% 6.9 mph WNW11.1 kmh WNW 9.2 mph14.8 kmh 30.02 in1016.6 mb 0.00 in0.0 mm 0.00 in0.0 mm 0.00 in0.0 mm
04:30 PM 78.1°F25.6°C 32.5°F0.3°C 19% 3.1 mph NW5.0 kmh NW 9.8 mph15.8 kmh 30.02 in1016.6 mb 0.00 in0.0 mm 0.00 in0.0 mm 0.00 in0.0 mm
04:45 PM 78.1°F25.6°C 29.8°F-1.2°C 17% 5.4 mph NW8.7 kmh NW 8.3 mph13.4 kmh 30.01 in1016.3 mb 0.00 in0.0 mm 0.00 in0.0 mm 0.00 in0.0 mm
05:00 PM 77.9°F25.5°C 31.0°F-0.6°C 18% 3.1 mph NW5.0 kmh NW 9.8 mph15.8 kmh 30.01 in1016.3 mb 0.00 in0.0 mm 0.00 in0.0 mm 0.00 in0.0 mm
05:15 PM 77.7°F25.4°C 30.9°F-0.6°C 18% 3.1 mph NW5.0 kmh NW 7.6 mph12.2 kmh 30.02 in1016.6 mb 0.00 in0.0 mm 0.00 in0.0 mm 0.00 in0.0 mm
05:30 PM 77.9°F25.5°C 31.0°F-0.6°C 18% 3.8 mph NNW6.1 kmh NNW 9.2 mph14.8 kmh 30.02 in1016.6 mb 0.00 in0.0 mm 0.00 in0.0 mm 0.00 in0.0 mm
05:45 PM 78.8°F26.0°C 30.3°F-0.9°C 17% 5.4 mph N8.7 kmh N 6.9 mph11.1 kmh 30.02 in1016.6 mb 0.00 in0.0 mm 0.00 in0.0 mm 0.00 in0.0 mm
06:00 PM 78.6°F25.9°C 30.2°F-1.0°C 17% 3.1 mph N5.0 kmh N 6.9 mph11.1 kmh 30.02 in1016.6 mb 0.00 in0.0 mm 0.00 in0.0 mm 0.00 in0.0 mm
06:15 PM 76.8°F24.9°C 31.5°F-0.3°C 19% 0.7 mph N1.1 kmh N 6.9 mph11.1 kmh 30.02 in1016.6 mb 0.00 in0.0 mm 0.00 in0.0 mm 0.00 in0.0 mm
06:30 PM 76.5°F24.7°C 31.2°F-0.4°C 19% 2.2 mph NNW3.5 kmh NNW 5.4 mph8.7 kmh 30.04 in1017.3 mb 0.00 in0.0 mm 0.00 in0.0 mm 0.00 in0.0 mm
06:45 PM 74.3°F23.5°C 33.0°F0.6°C 22% 1.6 mph NNW2.6 kmh NNW 4.5 mph7.2 kmh 30.04 in1017.3 mb 0.00 in0.0 mm 0.00 in0.0 mm 0.00 in0.0 mm
07:00 PM 72.3°F22.4°C 30.2°F-1.0°C 21% 0.7 mph N1.1 kmh N 2.2 mph3.5 kmh 30.04 in1017.3 mb 0.00 in0.0 mm 0.00 in0.0 mm 0.00 in0.0 mm
07:15 PM 70.5°F21.4°C 31.0°F-0.6°C 23% Calm Calm 2.2 mph3.5 kmh 30.04 in1017.3 mb 0.00 in0.0 mm 0.00 in0.0 mm 0.00 in0.0 mm
07:30 PM 68.7°F20.4°C 33.4°F0.8°C 27% Calm Calm 0.7 mph1.1 kmh 30.05 in1017.6 mb 0.00 in0.0 mm 0.00 in0.0 mm 0.00 in0.0 mm
07:45 PM 68.0°F20.0°C 37.1°F2.8°C 32% Calm Calm 1.6 mph2.6 kmh 30.06 in1017.9 mb 0.00 in0.0 mm 0.00 in0.0 mm 0.00 in0.0 mm
08:00 PM 66.7°F19.3°C 37.5°F3.1°C 34% Calm Calm -- 30.06 in1017.9 mb 0.00 in0.0 mm 0.00 in0.0 mm 0.00 in0.0 mm
08:15 PM 67.3°F19.6°C 39.4°F4.1°C 36% Calm Calm 1.6 mph2.6 kmh 30.06 in1017.9 mb 0.00 in0.0 mm 0.00 in0.0 mm 0.00 in0.0 mm
08:30 PM 66.6°F19.2°C 40.9°F4.9°C 39% Calm Calm 1.6 mph2.6 kmh 30.08 in1018.6 mb 0.00 in0.0 mm 0.00 in0.0 mm 0.00 in0.0 mm
08:45 PM 65.3°F18.5°C 43.4°F6.3°C 45% Calm Calm 0.7 mph1.1 kmh 30.08 in1018.6 mb 0.00 in0.0 mm 0.00 in0.0 mm 0.00 in0.0 mm
09:00 PM 65.7°F18.7°C 47.6°F8.7°C 52% Calm Calm 3.1 mph5.0 kmh 30.09 in1019.0 mb 0.00 in0.0 mm 0.00 in0.0 mm 0.00 in0.0 mm
09:15 PM 64.8°F18.2°C 48.7°F9.3°C 56% Calm Calm 2.2 mph3.5 kmh 30.09 in1019.0 mb 0.00 in0.0 mm 0.00 in0.0 mm 0.00 in0.0 mm
09:30 PM 64.0°F17.8°C 48.5°F9.2°C 57% Calm Calm 1.6 mph2.6 kmh 30.09 in1019.0 mb 0.00 in0.0 mm 0.00 in0.0 mm 0.00 in0.0 mm
09:45 PM 63.9°F17.7°C 46.9°F8.3°C 54% 0.7 mph NE1.1 kmh NE 3.1 mph5.0 kmh 30.10 in1019.3 mb 0.00 in0.0 mm 0.00 in0.0 mm 0.00 in0.0 mm
10:00 PM 63.9°F17.7°C 45.4°F7.4°C 51% 1.6 mph NNE2.6 kmh NNE 3.1 mph5.0 kmh 30.10 in1019.3 mb 0.00 in0.0 mm 0.00 in0.0 mm 0.00 in0.0 mm
10:15 PM 64.2°F17.9°C 44.1°F6.7°C 48% 1.6 mph N2.6 kmh N 5.4 mph8.7 kmh 30.10 in1019.3 mb 0.00 in0.0 mm 0.00 in0.0 mm 0.00 in0.0 mm
10:30 PM 63.7°F17.6°C 43.6°F6.4°C 48% 1.6 mph N2.6 kmh N 4.5 mph7.2 kmh 30.10 in1019.3 mb 0.00 in0.0 mm 0.00 in0.0 mm 0.00 in0.0 mm
10:45 PM 63.3°F17.4°C 43.9°F6.6°C 49% 0.7 mph N1.1 kmh N 4.5 mph7.2 kmh 30.10 in1019.3 mb 0.00 in0.0 mm 0.00 in0.0 mm 0.00 in0.0 mm
11:00 PM 63.0°F17.2°C 45.1°F7.3°C 52% 1.6 mph N2.6 kmh N 5.4 mph8.7 kmh 30.10 in1019.3 mb 0.00 in0.0 mm 0.00 in0.0 mm 0.00 in0.0 mm
11:15 PM 63.0°F17.2°C 43.5°F6.4°C 49% 4.5 mph N7.2 kmh N 8.3 mph13.4 kmh 30.10 in1019.3 mb 0.00 in0.0 mm 0.00 in0.0 mm 0.00 in0.0 mm
11:30 PM 62.8°F17.1°C 42.3°F5.7°C 47% 2.2 mph N3.5 kmh N 6.0 mph9.7 kmh 30.10 in1019.3 mb 0.00 in0.0 mm 0.00 in0.0 mm 0.00 in0.0 mm
11:45 PM 62.4°F16.9°C 43.6°F6.4°C 50% 2.2 mph N3.5 kmh N 5.4 mph8.7 kmh 30.10 in1019.3 mb 0.00 in0.0 mm 0.00 in0.0 mm 0.00 in0.0 mm